sensor_id;sensor_type;location;lat;lon;timestamp;P1;durP1;ratioP1;P2;durP2;ratioP2
5465;SDS011;2755;50.728;7.108;2022-09-20T00:00:43;6.43;;;1.47;;
5465;SDS011;2755;50.728;7.108;2022-09-20T00:03:11;2.80;;;1.30;;
5465;SDS011;2755;50.728;7.108;2022-09-20T00:05:38;1.80;;;1.37;;
5465;SDS011;2755;50.728;7.108;2022-09-20T00:08:06;5.43;;;1.47;;
5465;SDS011;2755;50.728;7.108;2022-09-20T00:10:34;7.00;;;1.33;;
5465;SDS011;2755;50.728;7.108;2022-09-20T00:13:03;3.17;;;1.20;;
5465;SDS011;2755;50.728;7.108;2022-09-20T00:15:32;2.47;;;1.30;;
5465;SDS011;2755;50.728;7.108;2022-09-20T00:17:59;2.90;;;1.20;;
5465;SDS011;2755;50.728;7.108;2022-09-20T00:20:25;5.90;;;2.00;;
5465;SDS011;2755;50.728;7.108;2022-09-20T00:22:51;6.07;;;1.90;;
5465;SDS011;2755;50.728;7.108;2022-09-20T00:25:17;4.37;;;1.50;;
5465;SDS011;2755;50.728;7.108;2022-09-20T00:27:44;4.93;;;1.70;;
5465;SDS011;2755;50.728;7.108;2022-09-20T00:30:10;3.57;;;2.00;;
5465;SDS011;2755;50.728;7.108;2022-09-20T00:32:37;5.00;;;1.60;;
5465;SDS011;2755;50.728;7.108;2022-09-20T00:35:03;1.93;;;1.00;;
5465;SDS011;2755;50.728;7.108;2022-09-20T00:37:42;2.70;;;1.20;;
5465;SDS011;2755;50.728;7.108;2022-09-20T00:40:09;2.80;;;1.40;;
5465;SDS011;2755;50.728;7.108;2022-09-20T00:42:39;8.47;;;2.33;;
5465;SDS011;2755;50.728;7.108;2022-09-20T00:45:38;3.43;;;1.50;;
5465;SDS011;2755;50.728;7.108;2022-09-20T00:48:14;3.30;;;1.60;;
5465;SDS011;2755;50.728;7.108;2022-09-20T00:51:04;7.43;;;1.60;;
5465;SDS011;2755;50.728;7.108;2022-09-20T00:53:35;4.23;;;1.70;;
5465;SDS011;2755;50.728;7.108;2022-09-20T00:56:08;3.93;;;1.80;;
5465;SDS011;2755;50.728;7.108;2022-09-20T00:58:41;5.27;;;1.93;;
5465;SDS011;2755;50.728;7.108;2022-09-20T01:01:15;3.93;;;1.60;;
5465;SDS011;2755;50.728;7.108;2022-09-20T01:03:41;4.20;;;1.43;;
5465;SDS011;2755;50.728;7.108;2022-09-20T01:06:08;2.77;;;1.40;;
5465;SDS011;2755;50.728;7.108;2022-09-20T01:08:37;2.37;;;1.40;;
5465;SDS011;2755;50.728;7.108;2022-09-20T01:11:05;4.83;;;1.90;;
5465;SDS011;2755;50.728;7.108;2022-09-20T01:13:30;3.63;;;1.40;;
5465;SDS011;2755;50.728;7.108;2022-09-20T01:15:56;3.80;;;1.80;;
5465;SDS011;2755;50.728;7.108;2022-09-20T01:18:25;8.07;;;1.60;;
5465;SDS011;2755;50.728;7.108;2022-09-20T01:20:52;4.40;;;1.70;;
5465;SDS011;2755;50.728;7.108;2022-09-20T01:28:46;5.17;;;2.00;;
5465;SDS011;2755;50.728;7.108;2022-09-20T01:31:23;5.27;;;1.50;;
5465;SDS011;2755;50.728;7.108;2022-09-20T01:33:57;2.33;;;1.60;;
5465;SDS011;2755;50.728;7.108;2022-09-20T01:36:33;5.67;;;1.63;;
5465;SDS011;2755;50.728;7.108;2022-09-20T01:41:52;4.40;;;1.37;;
5465;SDS011;2755;50.728;7.108;2022-09-20T01:49:56;5.60;;;1.80;;
5465;SDS011;2755;50.728;7.108;2022-09-20T02:09:11;2.83;;;1.90;;
5465;SDS011;2755;50.728;7.108;2022-09-20T02:12:00;6.37;;;2.00;;
5465;SDS011;2755;50.728;7.108;2022-09-20T02:17:26;4.53;;;2.00;;
5465;SDS011;2755;50.728;7.108;2022-09-20T02:22:57;4.57;;;2.03;;
5465;SDS011;2755;50.728;7.108;2022-09-20T02:30:50;8.73;;;3.03;;
5465;SDS011;2755;50.728;7.108;2022-09-20T02:33:33;11.90;;;2.47;;
5465;SDS011;2755;50.728;7.108;2022-09-20T02:39:14;6.43;;;2.20;;
5465;SDS011;2755;50.728;7.108;2022-09-20T02:41:54;5.13;;;2.43;;
5465;SDS011;2755;50.728;7.108;2022-09-20T02:47:44;6.17;;;2.90;;
5465;SDS011;2755;50.728;7.108;2022-09-20T02:58:51;4.73;;;2.33;;
5465;SDS011;2755;50.728;7.108;2022-09-20T03:06:41;3.80;;;2.10;;
5465;SDS011;2755;50.728;7.108;2022-09-20T03:12:42;5.30;;;2.10;;
5465;SDS011;2755;50.728;7.108;2022-09-20T03:15:26;2.33;;;2.13;;
5465;SDS011;2755;50.728;7.108;2022-09-20T03:29:00;5.60;;;1.97;;
5465;SDS011;2755;50.728;7.108;2022-09-20T03:56:12;4.23;;;2.00;;
5465;SDS011;2755;50.728;7.108;2022-09-20T04:04:30;2.40;;;1.80;;
5465;SDS011;2755;50.728;7.108;2022-09-20T04:07:09;7.53;;;2.27;;
5465;SDS011;2755;50.728;7.108;2022-09-20T04:15:38;4.20;;;2.13;;
5465;SDS011;2755;50.728;7.108;2022-09-20T04:18:34;5.83;;;1.80;;
5465;SDS011;2755;50.728;7.108;2022-09-20T04:21:16;4.17;;;1.83;;
5465;SDS011;2755;50.728;7.108;2022-09-20T04:23:50;3.20;;;1.97;;
5465;SDS011;2755;50.728;7.108;2022-09-20T04:26:26;6.90;;;2.50;;
5465;SDS011;2755;50.728;7.108;2022-09-20T04:28:54;3.67;;;1.80;;
5465;SDS011;2755;50.728;7.108;2022-09-20T04:34:18;2.30;;;1.70;;
5465;SDS011;2755;50.728;7.108;2022-09-20T04:37:24;1.77;;;1.60;;
5465;SDS011;2755;50.728;7.108;2022-09-20T04:39:56;4.83;;;2.10;;
5465;SDS011;2755;50.728;7.108;2022-09-20T05:19:34;2.90;;;1.70;;
5465;SDS011;2755;50.728;7.108;2022-09-20T05:30:03;3.90;;;1.63;;
5465;SDS011;2755;50.728;7.108;2022-09-20T05:41:06;3.47;;;1.93;;
5465;SDS011;2755;50.728;7.108;2022-09-20T05:43:54;2.17;;;1.93;;
5465;SDS011;2755;50.728;7.108;2022-09-20T05:47:04;5.63;;;2.03;;
5465;SDS011;2755;50.728;7.108;2022-09-20T05:49:57;2.40;;;1.87;;
5465;SDS011;2755;50.728;7.108;2022-09-20T06:05:31;3.60;;;1.97;;
5465;SDS011;2755;50.728;7.108;2022-09-20T06:15:57;4.27;;;2.40;;
5465;SDS011;2755;50.728;7.108;2022-09-20T06:23:59;8.67;;;2.53;;
5465;SDS011;2755;50.728;7.108;2022-09-20T06:26:27;7.67;;;2.90;;
5465;SDS011;2755;50.728;7.108;2022-09-20T06:28:58;10.03;;;2.27;;
5465;SDS011;2755;50.728;7.108;2022-09-20T06:31:27;7.83;;;2.70;;
5465;SDS011;2755;50.728;7.108;2022-09-20T06:36:26;6.70;;;3.07;;
5465;SDS011;2755;50.728;7.108;2022-09-20T06:39:32;7.70;;;3.80;;
5465;SDS011;2755;50.728;7.108;2022-09-20T06:42:29;2.90;;;2.40;;
5465;SDS011;2755;50.728;7.108;2022-09-20T06:44:54;12.57;;;3.67;;
5465;SDS011;2755;50.728;7.108;2022-09-20T06:47:20;9.20;;;4.23;;
5465;SDS011;2755;50.728;7.108;2022-09-20T06:49:47;4.83;;;3.27;;
5465;SDS011;2755;50.728;7.108;2022-09-20T06:52:17;7.30;;;3.43;;
5465;SDS011;2755;50.728;7.108;2022-09-20T06:54:45;6.67;;;3.67;;
5465;SDS011;2755;50.728;7.108;2022-09-20T06:57:13;4.17;;;2.90;;
5465;SDS011;2755;50.728;7.108;2022-09-20T06:59:42;8.47;;;4.23;;
5465;SDS011;2755;50.728;7.108;2022-09-20T07:02:08;7.60;;;3.80;;
5465;SDS011;2755;50.728;7.108;2022-09-20T07:04:34;10.97;;;5.07;;
5465;SDS011;2755;50.728;7.108;2022-09-20T07:07:01;10.10;;;4.70;;
5465;SDS011;2755;50.728;7.108;2022-09-20T07:09:28;8.07;;;4.50;;
5465;SDS011;2755;50.728;7.108;2022-09-20T07:11:54;6.30;;;3.80;;
5465;SDS011;2755;50.728;7.108;2022-09-20T07:14:23;17.70;;;5.17;;
5465;SDS011;2755;50.728;7.108;2022-09-20T07:16:49;11.97;;;5.73;;
5465;SDS011;2755;50.728;7.108;2022-09-20T07:19:15;14.93;;;5.13;;
5465;SDS011;2755;50.728;7.108;2022-09-20T07:21:40;15.03;;;5.90;;
5465;SDS011;2755;50.728;7.108;2022-09-20T07:24:06;12.67;;;5.23;;
5465;SDS011;2755;50.728;7.108;2022-09-20T07:26:32;17.20;;;5.00;;
5465;SDS011;2755;50.728;7.108;2022-09-20T07:28:59;9.53;;;5.23;;
5465;SDS011;2755;50.728;7.108;2022-09-20T07:31:26;13.00;;;4.83;;
5465;SDS011;2755;50.728;7.108;2022-09-20T07:33:53;12.50;;;4.33;;
5465;SDS011;2755;50.728;7.108;2022-09-20T07:36:19;9.40;;;4.90;;
5465;SDS011;2755;50.728;7.108;2022-09-20T07:38:46;6.97;;;3.90;;
5465;SDS011;2755;50.728;7.108;2022-09-20T07:41:13;10.57;;;4.27;;
5465;SDS011;2755;50.728;7.108;2022-09-20T07:43:39;12.73;;;4.23;;
5465;SDS011;2755;50.728;7.108;2022-09-20T07:46:05;7.67;;;4.30;;
5465;SDS011;2755;50.728;7.108;2022-09-20T07:48:31;7.90;;;4.33;;
5465;SDS011;2755;50.728;7.108;2022-09-20T07:51:09;8.23;;;5.37;;
5465;SDS011;2755;50.728;7.108;2022-09-20T07:53:36;12.03;;;4.53;;
5465;SDS011;2755;50.728;7.108;2022-09-20T07:56:04;5.17;;;4.20;;
5465;SDS011;2755;50.728;7.108;2022-09-20T07:58:39;7.70;;;3.80;;
5465;SDS011;2755;50.728;7.108;2022-09-20T08:01:06;9.60;;;3.40;;
5465;SDS011;2755;50.728;7.108;2022-09-20T08:03:34;8.67;;;3.60;;
5465;SDS011;2755;50.728;7.108;2022-09-20T08:06:01;9.93;;;3.53;;
5465;SDS011;2755;50.728;7.108;2022-09-20T08:08:32;10.77;;;3.40;;
5465;SDS011;2755;50.728;7.108;2022-09-20T08:11:00;7.07;;;2.87;;
5465;SDS011;2755;50.728;7.108;2022-09-20T08:13:29;5.83;;;2.40;;
5465;SDS011;2755;50.728;7.108;2022-09-20T08:16:05;8.33;;;2.73;;
5465;SDS011;2755;50.728;7.108;2022-09-20T08:18:32;9.20;;;2.63;;
5465;SDS011;2755;50.728;7.108;2022-09-20T08:21:02;7.90;;;3.20;;
5465;SDS011;2755;50.728;7.108;2022-09-20T08:23:33;5.87;;;2.67;;
5465;SDS011;2755;50.728;7.108;2022-09-20T08:26:02;11.20;;;2.90;;
5465;SDS011;2755;50.728;7.108;2022-09-20T08:28:29;11.43;;;3.37;;
5465;SDS011;2755;50.728;7.108;2022-09-20T08:31:05;6.60;;;3.10;;
5465;SDS011;2755;50.728;7.108;2022-09-20T08:33:35;2.93;;;2.20;;
5465;SDS011;2755;50.728;7.108;2022-09-20T08:36:02;8.03;;;2.57;;
5465;SDS011;2755;50.728;7.108;2022-09-20T08:38:29;6.30;;;1.70;;
5465;SDS011;2755;50.728;7.108;2022-09-20T08:40:57;4.00;;;1.87;;
5465;SDS011;2755;50.728;7.108;2022-09-20T08:43:31;6.87;;;3.07;;
5465;SDS011;2755;50.728;7.108;2022-09-20T08:46:02;4.00;;;1.87;;
5465;SDS011;2755;50.728;7.108;2022-09-20T08:48:31;3.83;;;1.87;;
5465;SDS011;2755;50.728;7.108;2022-09-20T08:51:01;2.80;;;1.57;;
5465;SDS011;2755;50.728;7.108;2022-09-20T08:53:27;3.70;;;1.80;;
5465;SDS011;2755;50.728;7.108;2022-09-20T08:55:54;6.73;;;1.70;;
5465;SDS011;2755;50.728;7.108;2022-09-20T08:58:26;9.20;;;2.07;;
5465;SDS011;2755;50.728;7.108;2022-09-20T09:00:52;6.10;;;1.97;;
5465;SDS011;2755;50.728;7.108;2022-09-20T09:03:20;11.10;;;2.40;;
5465;SDS011;2755;50.728;7.108;2022-09-20T09:05:47;7.90;;;2.27;;
5465;SDS011;2755;50.728;7.108;2022-09-20T09:08:16;9.13;;;2.20;;
5465;SDS011;2755;50.728;7.108;2022-09-20T09:10:51;7.70;;;1.67;;
5465;SDS011;2755;50.728;7.108;2022-09-20T09:13:32;9.23;;;1.80;;
5465;SDS011;2755;50.728;7.108;2022-09-20T09:16:15;7.57;;;1.50;;
5465;SDS011;2755;50.728;7.108;2022-09-20T09:18:44;4.63;;;1.50;;
5465;SDS011;2755;50.728;7.108;2022-09-20T09:21:20;4.03;;;1.33;;
5465;SDS011;2755;50.728;7.108;2022-09-20T09:23:50;4.93;;;1.00;;
5465;SDS011;2755;50.728;7.108;2022-09-20T09:26:27;6.70;;;1.47;;
5465;SDS011;2755;50.728;7.108;2022-09-20T09:29:15;7.87;;;1.40;;
5465;SDS011;2755;50.728;7.108;2022-09-20T09:31:46;5.47;;;1.30;;
5465;SDS011;2755;50.728;7.108;2022-09-20T09:34:47;5.67;;;1.50;;
5465;SDS011;2755;50.728;7.108;2022-09-20T09:37:08;3.53;;;1.03;;
5465;SDS011;2755;50.728;7.108;2022-09-20T09:40:07;2.37;;;1.10;;
5465;SDS011;2755;50.728;7.108;2022-09-20T09:42:50;6.10;;;1.30;;
5465;SDS011;2755;50.728;7.108;2022-09-20T09:48:00;6.27;;;1.47;;
5465;SDS011;2755;50.728;7.108;2022-09-20T09:50:27;3.97;;;1.20;;
5465;SDS011;2755;50.728;7.108;2022-09-20T09:52:59;6.27;;;1.37;;
5465;SDS011;2755;50.728;7.108;2022-09-20T09:55:29;10.13;;;1.50;;
5465;SDS011;2755;50.728;7.108;2022-09-20T09:58:17;3.37;;;1.23;;
5465;SDS011;2755;50.728;7.108;2022-09-20T10:01:21;4.80;;;1.20;;
5465;SDS011;2755;50.728;7.108;2022-09-20T10:05:07;5.37;;;1.20;;
5465;SDS011;2755;50.728;7.108;2022-09-20T10:10:38;13.30;;;2.00;;
5465;SDS011;2755;50.728;7.108;2022-09-20T10:15:48;2.23;;;1.13;;
5465;SDS011;2755;50.728;7.108;2022-09-20T10:26:38;3.13;;;1.27;;
5465;SDS011;2755;50.728;7.108;2022-09-20T10:29:32;6.33;;;1.47;;
5465;SDS011;2755;50.728;7.108;2022-09-20T10:49:41;9.43;;;1.60;;
5465;SDS011;2755;50.728;7.108;2022-09-20T10:52:33;6.10;;;1.50;;
5465;SDS011;2755;50.728;7.108;2022-09-20T10:55:07;5.50;;;1.70;;
5465;SDS011;2755;50.728;7.108;2022-09-20T10:57:58;5.73;;;1.13;;
5465;SDS011;2755;50.728;7.108;2022-09-20T11:10:49;8.23;;;1.33;;
5465;SDS011;2755;50.728;7.108;2022-09-20T11:16:35;2.53;;;0.90;;
5465;SDS011;2755;50.728;7.108;2022-09-20T11:22:01;4.40;;;0.93;;
5465;SDS011;2755;50.728;7.108;2022-09-20T11:27:54;2.43;;;1.03;;
5465;SDS011;2755;50.728;7.108;2022-09-20T11:30:21;3.80;;;1.37;;
5465;SDS011;2755;50.728;7.108;2022-09-20T11:32:55;3.90;;;1.17;;
5465;SDS011;2755;50.728;7.108;2022-09-20T11:35:50;8.90;;;2.10;;
5465;SDS011;2755;50.728;7.108;2022-09-20T11:43:21;7.10;;;1.27;;
5465;SDS011;2755;50.728;7.108;2022-09-20T11:45:54;8.80;;;1.30;;
5465;SDS011;2755;50.728;7.108;2022-09-20T11:51:12;5.20;;;1.67;;
5465;SDS011;2755;50.728;7.108;2022-09-20T11:56:42;3.00;;;0.97;;
5465;SDS011;2755;50.728;7.108;2022-09-20T11:59:34;7.83;;;1.30;;
5465;SDS011;2755;50.728;7.108;2022-09-20T12:02:03;2.70;;;0.90;;
5465;SDS011;2755;50.728;7.108;2022-09-20T12:04:39;5.23;;;1.10;;
5465;SDS011;2755;50.728;7.108;2022-09-20T12:09:44;3.83;;;1.03;;
5465;SDS011;2755;50.728;7.108;2022-09-20T12:12:22;8.63;;;1.50;;
5465;SDS011;2755;50.728;7.108;2022-09-20T12:15:00;4.50;;;1.03;;
5465;SDS011;2755;50.728;7.108;2022-09-20T12:28:49;3.90;;;1.37;;
5465;SDS011;2755;50.728;7.108;2022-09-20T12:39:14;2.70;;;1.23;;
5465;SDS011;2755;50.728;7.108;2022-09-20T12:41:52;6.10;;;1.40;;
5465;SDS011;2755;50.728;7.108;2022-09-20T12:44:40;10.37;;;1.73;;
5465;SDS011;2755;50.728;7.108;2022-09-20T12:47:22;4.70;;;1.30;;
5465;SDS011;2755;50.728;7.108;2022-09-20T12:49:50;5.30;;;1.27;;
5465;SDS011;2755;50.728;7.108;2022-09-20T12:52:38;1.37;;;0.97;;
5465;SDS011;2755;50.728;7.108;2022-09-20T12:57:57;2.80;;;1.20;;
5465;SDS011;2755;50.728;7.108;2022-09-20T13:00:36;3.90;;;1.47;;
5465;SDS011;2755;50.728;7.108;2022-09-20T13:05:43;4.70;;;1.23;;
5465;SDS011;2755;50.728;7.108;2022-09-20T13:10:43;2.30;;;1.17;;
5465;SDS011;2755;50.728;7.108;2022-09-20T13:13:30;2.80;;;0.93;;
5465;SDS011;2755;50.728;7.108;2022-09-20T13:16:01;3.40;;;1.17;;
5465;SDS011;2755;50.728;7.108;2022-09-20T13:18:29;4.73;;;0.90;;
5465;SDS011;2755;50.728;7.108;2022-09-20T13:20:56;2.40;;;0.90;;
5465;SDS011;2755;50.728;7.108;2022-09-20T13:23:27;5.67;;;1.13;;
5465;SDS011;2755;50.728;7.108;2022-09-20T13:25:56;2.80;;;0.80;;
5465;SDS011;2755;50.728;7.108;2022-09-20T13:34:10;2.00;;;1.13;;
5465;SDS011;2755;50.728;7.108;2022-09-20T13:36:48;2.80;;;0.70;;
5465;SDS011;2755;50.728;7.108;2022-09-20T13:39:51;2.67;;;0.80;;
5465;SDS011;2755;50.728;7.108;2022-09-20T13:42:10;5.30;;;1.10;;
5465;SDS011;2755;50.728;7.108;2022-09-20T13:44:43;2.40;;;0.73;;
5465;SDS011;2755;50.728;7.108;2022-09-20T13:47:23;2.80;;;1.10;;
5465;SDS011;2755;50.728;7.108;2022-09-20T13:50:15;1.87;;;0.83;;
5465;SDS011;2755;50.728;7.108;2022-09-20T13:52:47;8.70;;;1.03;;
5465;SDS011;2755;50.728;7.108;2022-09-20T13:55:35;5.90;;;1.00;;
5465;SDS011;2755;50.728;7.108;2022-09-20T14:01:38;4.17;;;1.10;;
5465;SDS011;2755;50.728;7.108;2022-09-20T14:03:46;4.10;;;0.80;;
5465;SDS011;2755;50.728;7.108;2022-09-20T14:06:13;5.43;;;1.00;;
5465;SDS011;2755;50.728;7.108;2022-09-20T14:08:41;6.77;;;1.37;;
5465;SDS011;2755;50.728;7.108;2022-09-20T14:11:15;3.23;;;0.97;;
5465;SDS011;2755;50.728;7.108;2022-09-20T14:13:59;4.90;;;1.20;;
5465;SDS011;2755;50.728;7.108;2022-09-20T14:16:27;3.40;;;0.93;;
5465;SDS011;2755;50.728;7.108;2022-09-20T14:18:55;5.47;;;1.10;;
5465;SDS011;2755;50.728;7.108;2022-09-20T14:21:23;8.63;;;1.10;;
5465;SDS011;2755;50.728;7.108;2022-09-20T14:23:58;3.47;;;1.47;;
5465;SDS011;2755;50.728;7.108;2022-09-20T14:26:36;4.50;;;1.20;;
5465;SDS011;2755;50.728;7.108;2022-09-20T14:29:26;4.77;;;0.90;;
5465;SDS011;2755;50.728;7.108;2022-09-20T14:31:58;3.50;;;1.20;;
5465;SDS011;2755;50.728;7.108;2022-09-20T14:34:28;4.00;;;1.10;;
5465;SDS011;2755;50.728;7.108;2022-09-20T14:37:00;3.80;;;1.33;;
5465;SDS011;2755;50.728;7.108;2022-09-20T14:39:30;4.90;;;1.20;;
5465;SDS011;2755;50.728;7.108;2022-09-20T14:41:57;5.03;;;1.00;;
5465;SDS011;2755;50.728;7.108;2022-09-20T14:44:32;2.10;;;0.90;;
5465;SDS011;2755;50.728;7.108;2022-09-20T14:46:58;1.70;;;0.70;;
5465;SDS011;2755;50.728;7.108;2022-09-20T14:51:50;3.77;;;1.10;;
5465;SDS011;2755;50.728;7.108;2022-09-20T14:54:24;3.13;;;0.93;;
5465;SDS011;2755;50.728;7.108;2022-09-20T14:56:53;3.37;;;0.80;;
5465;SDS011;2755;50.728;7.108;2022-09-20T15:01:56;3.80;;;1.07;;
5465;SDS011;2755;50.728;7.108;2022-09-20T15:04:23;4.43;;;0.80;;
5465;SDS011;2755;50.728;7.108;2022-09-20T15:06:51;2.87;;;0.90;;
5465;SDS011;2755;50.728;7.108;2022-09-20T15:09:18;5.30;;;1.00;;
5465;SDS011;2755;50.728;7.108;2022-09-20T15:11:45;2.40;;;1.10;;
5465;SDS011;2755;50.728;7.108;2022-09-20T15:14:13;1.87;;;0.80;;
5465;SDS011;2755;50.728;7.108;2022-09-20T15:16:39;1.83;;;0.70;;
5465;SDS011;2755;50.728;7.108;2022-09-20T15:19:05;4.60;;;1.07;;
5465;SDS011;2755;50.728;7.108;2022-09-20T15:21:32;2.70;;;0.77;;
5465;SDS011;2755;50.728;7.108;2022-09-20T15:23:57;4.67;;;0.87;;
5465;SDS011;2755;50.728;7.108;2022-09-20T15:26:23;4.40;;;1.20;;
5465;SDS011;2755;50.728;7.108;2022-09-20T15:28:49;1.03;;;0.60;;
5465;SDS011;2755;50.728;7.108;2022-09-20T15:31:15;3.97;;;0.73;;
5465;SDS011;2755;50.728;7.108;2022-09-20T15:33:43;3.17;;;0.97;;
5465;SDS011;2755;50.728;7.108;2022-09-20T15:36:08;3.73;;;1.30;;
5465;SDS011;2755;50.728;7.108;2022-09-20T15:38:34;2.60;;;0.70;;
5465;SDS011;2755;50.728;7.108;2022-09-20T15:41:00;2.90;;;0.60;;
5465;SDS011;2755;50.728;7.108;2022-09-20T15:43:28;7.07;;;1.47;;
5465;SDS011;2755;50.728;7.108;2022-09-20T15:45:58;1.20;;;0.73;;
5465;SDS011;2755;50.728;7.108;2022-09-20T15:48:29;3.20;;;0.90;;
5465;SDS011;2755;50.728;7.108;2022-09-20T15:51:02;1.70;;;0.93;;
5465;SDS011;2755;50.728;7.108;2022-09-20T15:53:31;3.70;;;1.10;;
5465;SDS011;2755;50.728;7.108;2022-09-20T15:55:59;8.73;;;1.73;;
5465;SDS011;2755;50.728;7.108;2022-09-20T15:58:30;5.47;;;1.10;;
5465;SDS011;2755;50.728;7.108;2022-09-20T16:01:05;1.37;;;0.87;;
5465;SDS011;2755;50.728;7.108;2022-09-20T16:03:32;3.30;;;1.33;;
5465;SDS011;2755;50.728;7.108;2022-09-20T16:05:59;1.90;;;0.83;;
5465;SDS011;2755;50.728;7.108;2022-09-20T16:08:30;5.03;;;1.00;;
5465;SDS011;2755;50.728;7.108;2022-09-20T16:10:57;8.37;;;1.60;;
5465;SDS011;2755;50.728;7.108;2022-09-20T16:13:23;1.40;;;0.90;;
5465;SDS011;2755;50.728;7.108;2022-09-20T16:15:56;2.43;;;0.80;;
5465;SDS011;2755;50.728;7.108;2022-09-20T16:18:25;3.37;;;0.97;;
5465;SDS011;2755;50.728;7.108;2022-09-20T16:21:11;2.90;;;0.93;;
5465;SDS011;2755;50.728;7.108;2022-09-20T16:23:38;2.23;;;1.00;;
5465;SDS011;2755;50.728;7.108;2022-09-20T16:26:05;4.43;;;0.90;;
5465;SDS011;2755;50.728;7.108;2022-09-20T16:28:31;3.87;;;1.23;;
5465;SDS011;2755;50.728;7.108;2022-09-20T16:30:57;1.47;;;0.90;;
5465;SDS011;2755;50.728;7.108;2022-09-20T16:33:23;3.20;;;1.10;;
5465;SDS011;2755;50.728;7.108;2022-09-20T16:35:49;0.90;;;0.60;;
5465;SDS011;2755;50.728;7.108;2022-09-20T16:38:15;1.50;;;0.90;;
5465;SDS011;2755;50.728;7.108;2022-09-20T16:40:42;1.40;;;0.90;;
5465;SDS011;2755;50.728;7.108;2022-09-20T16:43:08;3.37;;;0.90;;
5465;SDS011;2755;50.728;7.108;2022-09-20T16:45:34;2.27;;;0.70;;
5465;SDS011;2755;50.728;7.108;2022-09-20T16:48:00;1.73;;;0.80;;
5465;SDS011;2755;50.728;7.108;2022-09-20T16:50:27;1.93;;;0.90;;
5465;SDS011;2755;50.728;7.108;2022-09-20T16:52:53;3.17;;;1.00;;
5465;SDS011;2755;50.728;7.108;2022-09-20T16:55:19;2.60;;;1.50;;
5465;SDS011;2755;50.728;7.108;2022-09-20T16:57:49;2.10;;;0.90;;
5465;SDS011;2755;50.728;7.108;2022-09-20T17:00:14;2.73;;;0.87;;
5465;SDS011;2755;50.728;7.108;2022-09-20T17:02:44;5.47;;;0.90;;
5465;SDS011;2755;50.728;7.108;2022-09-20T17:05:14;7.73;;;1.10;;
5465;SDS011;2755;50.728;7.108;2022-09-20T17:07:40;3.90;;;1.00;;
5465;SDS011;2755;50.728;7.108;2022-09-20T17:10:07;1.93;;;1.07;;
5465;SDS011;2755;50.728;7.108;2022-09-20T17:12:33;1.10;;;0.70;;
5465;SDS011;2755;50.728;7.108;2022-09-20T17:15:05;2.97;;;1.23;;
5465;SDS011;2755;50.728;7.108;2022-09-20T17:17:37;2.20;;;1.00;;
5465;SDS011;2755;50.728;7.108;2022-09-20T17:20:03;2.23;;;1.00;;
5465;SDS011;2755;50.728;7.108;2022-09-20T17:22:31;1.57;;;0.97;;
5465;SDS011;2755;50.728;7.108;2022-09-20T17:24:57;1.57;;;0.90;;
5465;SDS011;2755;50.728;7.108;2022-09-20T17:27:23;1.40;;;0.80;;
5465;SDS011;2755;50.728;7.108;2022-09-20T17:29:49;5.87;;;0.93;;
5465;SDS011;2755;50.728;7.108;2022-09-20T17:32:15;1.93;;;0.87;;
5465;SDS011;2755;50.728;7.108;2022-09-20T17:34:41;1.30;;;0.80;;
5465;SDS011;2755;50.728;7.108;2022-09-20T17:37:07;1.57;;;1.13;;
5465;SDS011;2755;50.728;7.108;2022-09-20T17:39:32;1.73;;;0.70;;
5465;SDS011;2755;50.728;7.108;2022-09-20T17:41:58;2.80;;;0.90;;
5465;SDS011;2755;50.728;7.108;2022-09-20T17:44:26;5.67;;;1.30;;
5465;SDS011;2755;50.728;7.108;2022-09-20T17:46:52;3.23;;;1.20;;
5465;SDS011;2755;50.728;7.108;2022-09-20T17:49:19;2.83;;;1.10;;
5465;SDS011;2755;50.728;7.108;2022-09-20T17:51:46;4.03;;;1.17;;
5465;SDS011;2755;50.728;7.108;2022-09-20T17:54:14;1.90;;;1.00;;
5465;SDS011;2755;50.728;7.108;2022-09-20T17:56:46;4.50;;;1.60;;
5465;SDS011;2755;50.728;7.108;2022-09-20T17:59:14;2.20;;;0.80;;
5465;SDS011;2755;50.728;7.108;2022-09-20T18:01:40;2.10;;;1.60;;
5465;SDS011;2755;50.728;7.108;2022-09-20T18:04:07;1.63;;;1.10;;
5465;SDS011;2755;50.728;7.108;2022-09-20T18:09:09;4.37;;;1.50;;
5465;SDS011;2755;50.728;7.108;2022-09-20T18:11:39;4.20;;;1.40;;
5465;SDS011;2755;50.728;7.108;2022-09-20T18:14:06;2.87;;;1.30;;
5465;SDS011;2755;50.728;7.108;2022-09-20T18:16:37;1.53;;;1.20;;
5465;SDS011;2755;50.728;7.108;2022-09-20T18:19:03;2.00;;;1.23;;
5465;SDS011;2755;50.728;7.108;2022-09-20T18:21:31;1.57;;;1.10;;
5465;SDS011;2755;50.728;7.108;2022-09-20T18:23:59;3.83;;;1.87;;
5465;SDS011;2755;50.728;7.108;2022-09-20T18:26:27;4.77;;;2.10;;
5465;SDS011;2755;50.728;7.108;2022-09-20T18:34:00;2.70;;;1.50;;
5465;SDS011;2755;50.728;7.108;2022-09-20T18:36:27;2.80;;;1.77;;
5465;SDS011;2755;50.728;7.108;2022-09-20T18:38:55;3.77;;;1.83;;
5465;SDS011;2755;50.728;7.108;2022-09-20T18:41:25;3.97;;;2.17;;
5465;SDS011;2755;50.728;7.108;2022-09-20T18:43:53;3.23;;;1.73;;
5465;SDS011;2755;50.728;7.108;2022-09-20T18:46:20;3.07;;;1.87;;
5465;SDS011;2755;50.728;7.108;2022-09-20T18:48:50;10.50;;;2.90;;
5465;SDS011;2755;50.728;7.108;2022-09-20T18:51:16;5.37;;;2.70;;
5465;SDS011;2755;50.728;7.108;2022-09-20T18:53:42;6.43;;;2.13;;
5465;SDS011;2755;50.728;7.108;2022-09-20T18:56:30;4.30;;;1.90;;
5465;SDS011;2755;50.728;7.108;2022-09-20T18:58:56;3.13;;;1.60;;
5465;SDS011;2755;50.728;7.108;2022-09-20T19:15:35;5.57;;;2.00;;
5465;SDS011;2755;50.728;7.108;2022-09-20T19:23:54;5.00;;;2.40;;
5465;SDS011;2755;50.728;7.108;2022-09-20T19:26:30;4.50;;;2.60;;
5465;SDS011;2755;50.728;7.108;2022-09-20T19:29:01;5.47;;;2.30;;
5465;SDS011;2755;50.728;7.108;2022-09-20T19:31:32;5.60;;;2.73;;
5465;SDS011;2755;50.728;7.108;2022-09-20T19:33:59;4.93;;;2.10;;
5465;SDS011;2755;50.728;7.108;2022-09-20T19:36:38;3.30;;;1.97;;
5465;SDS011;2755;50.728;7.108;2022-09-20T19:41:57;5.50;;;2.10;;
5465;SDS011;2755;50.728;7.108;2022-09-20T19:44:53;3.57;;;2.20;;
5465;SDS011;2755;50.728;7.108;2022-09-20T19:52:51;4.60;;;1.87;;
5465;SDS011;2755;50.728;7.108;2022-09-20T19:55:18;3.00;;;1.60;;
5465;SDS011;2755;50.728;7.108;2022-09-20T19:57:44;3.33;;;1.50;;
5465;SDS011;2755;50.728;7.108;2022-09-20T20:00:14;3.13;;;2.17;;
5465;SDS011;2755;50.728;7.108;2022-09-20T20:02:42;6.40;;;2.33;;
5465;SDS011;2755;50.728;7.108;2022-09-20T20:05:12;5.60;;;2.13;;
5465;SDS011;2755;50.728;7.108;2022-09-20T20:16:11;8.87;;;2.63;;
5465;SDS011;2755;50.728;7.108;2022-09-20T20:21:15;8.23;;;1.93;;
5465;SDS011;2755;50.728;7.108;2022-09-20T20:24:16;2.90;;;2.20;;
5465;SDS011;2755;50.728;7.108;2022-09-20T20:26:51;2.97;;;1.80;;
5465;SDS011;2755;50.728;7.108;2022-09-20T20:29:16;9.40;;;1.80;;
5465;SDS011;2755;50.728;7.108;2022-09-20T20:31:42;2.07;;;1.63;;
5465;SDS011;2755;50.728;7.108;2022-09-20T20:34:08;5.37;;;2.07;;
5465;SDS011;2755;50.728;7.108;2022-09-20T20:36:35;4.03;;;2.40;;
5465;SDS011;2755;50.728;7.108;2022-09-20T20:39:01;3.93;;;1.93;;
5465;SDS011;2755;50.728;7.108;2022-09-20T20:41:27;6.00;;;2.27;;
5465;SDS011;2755;50.728;7.108;2022-09-20T20:43:55;3.00;;;2.20;;
5465;SDS011;2755;50.728;7.108;2022-09-20T20:46:21;3.47;;;2.43;;
5465;SDS011;2755;50.728;7.108;2022-09-20T20:48:48;4.13;;;2.67;;
5465;SDS011;2755;50.728;7.108;2022-09-20T20:51:14;5.30;;;2.67;;
5465;SDS011;2755;50.728;7.108;2022-09-20T20:53:46;4.20;;;2.77;;
5465;SDS011;2755;50.728;7.108;2022-09-20T20:56:15;5.00;;;2.80;;
5465;SDS011;2755;50.728;7.108;2022-09-20T20:58:43;3.33;;;2.93;;
5465;SDS011;2755;50.728;7.108;2022-09-20T21:01:11;7.47;;;2.80;;
5465;SDS011;2755;50.728;7.108;2022-09-20T21:03:37;5.50;;;2.17;;
5465;SDS011;2755;50.728;7.108;2022-09-20T21:06:08;3.70;;;2.67;;
5465;SDS011;2755;50.728;7.108;2022-09-20T21:08:35;2.80;;;2.50;;
5465;SDS011;2755;50.728;7.108;2022-09-20T21:11:03;5.07;;;2.83;;
5465;SDS011;2755;50.728;7.108;2022-09-20T21:13:35;9.13;;;3.10;;
5465;SDS011;2755;50.728;7.108;2022-09-20T21:16:02;5.90;;;3.10;;
5465;SDS011;2755;50.728;7.108;2022-09-20T21:18:29;7.73;;;3.10;;
5465;SDS011;2755;50.728;7.108;2022-09-20T21:20:55;5.73;;;3.27;;
5465;SDS011;2755;50.728;7.108;2022-09-20T21:23:21;4.43;;;3.07;;
5465;SDS011;2755;50.728;7.108;2022-09-20T21:25:46;12.53;;;3.37;;
5465;SDS011;2755;50.728;7.108;2022-09-20T21:28:13;4.60;;;3.20;;
5465;SDS011;2755;50.728;7.108;2022-09-20T21:30:38;5.43;;;3.00;;
5465;SDS011;2755;50.728;7.108;2022-09-20T21:33:04;4.97;;;2.70;;
5465;SDS011;2755;50.728;7.108;2022-09-20T21:35:29;5.17;;;2.53;;